sensor_id;sensor_type;location;lat;lon;timestamp;pressure;altitude;pressure_sealevel;temperature;humidity
21960;BME280;11144;43.030;25.108;2023-04-26T00:00:42;98307.63;;;11.99;100.00
21960;BME280;11144;43.030;25.108;2023-04-26T00:02:17;98301.59;;;11.97;100.00
21960;BME280;11144;43.030;25.108;2023-04-26T00:03:50;98314.63;;;12.00;100.00
21960;BME280;11144;43.030;25.108;2023-04-26T00:05:24;98306.69;;;12.00;100.00
21960;BME280;11144;43.030;25.108;2023-04-26T00:06:57;98307.53;;;12.01;100.00
21960;BME280;11144;43.030;25.108;2023-04-26T00:08:31;98303.13;;;12.01;100.00
21960;BME280;11144;43.030;25.108;2023-04-26T00:10:05;98301.22;;;12.03;100.00
21960;BME280;11144;43.030;25.108;2023-04-26T00:11:39;98301.03;;;12.06;100.00
21960;BME280;11144;43.030;25.108;2023-04-26T00:13:12;98300.09;;;12.07;100.00
21960;BME280;11144;43.030;25.108;2023-04-26T00:14:46;98304.34;;;12.10;100.00
21960;BME280;11144;43.030;25.108;2023-04-26T00:16:18;98318.47;;;12.10;100.00
21960;BME280;11144;43.030;25.108;2023-04-26T00:17:51;98296.53;;;12.08;100.00
21960;BME280;11144;43.030;25.108;2023-04-26T00:19:25;98300.69;;;12.12;100.00
21960;BME280;11144;43.030;25.108;2023-04-26T00:20:58;98300.88;;;12.09;100.00
21960;BME280;11144;43.030;25.108;2023-04-26T00:22:31;98293.66;;;12.11;100.00
21960;BME280;11144;43.030;25.108;2023-04-26T00:24:04;98279.84;;;12.06;100.00
21960;BME280;11144;43.030;25.108;2023-04-26T00:25:37;98290.44;;;12.06;100.00
21960;BME280;11144;43.030;25.108;2023-04-26T00:27:11;98287.78;;;12.06;100.00
21960;BME280;11144;43.030;25.108;2023-04-26T00:28:46;98290.53;;;12.05;100.00
21960;BME280;11144;43.030;25.108;2023-04-26T00:30:19;98288.91;;;12.02;100.00
21960;BME280;11144;43.030;25.108;2023-04-26T00:31:53;98283.53;;;12.04;100.00
21960;BME280;11144;43.030;25.108;2023-04-26T00:33:26;98281.72;;;12.04;100.00
21960;BME280;11144;43.030;25.108;2023-04-26T00:35:02;98287.78;;;12.06;100.00
21960;BME280;11144;43.030;25.108;2023-04-26T00:36:36;98287.78;;;12.06;100.00
21960;BME280;11144;43.030;25.108;2023-04-26T00:38:09;98285.22;;;12.05;100.00
21960;BME280;11144;43.030;25.108;2023-04-26T00:39:42;98276.41;;;12.04;100.00
21960;BME280;11144;43.030;25.108;2023-04-26T00:41:15;98274.06;;;12.00;100.00
21960;BME280;11144;43.030;25.108;2023-04-26T00:42:48;98275.84;;;11.99;100.00
21960;BME280;11144;43.030;25.108;2023-04-26T00:44:22;98275.09;;;11.97;100.00
21960;BME280;11144;43.030;25.108;2023-04-26T00:45:55;98276.88;;;11.97;100.00
21960;BME280;11144;43.030;25.108;2023-04-26T00:47:28;98276.00;;;11.96;100.00
21960;BME280;11144;43.030;25.108;2023-04-26T00:49:02;98267.41;;;11.93;100.00
21960;BME280;11144;43.030;25.108;2023-04-26T00:50:35;98269.09;;;11.94;100.00
21960;BME280;11144;43.030;25.108;2023-04-26T00:52:09;98269.38;;;11.89;100.00
21960;BME280;11144;43.030;25.108;2023-04-26T00:53:43;98264.34;;;11.85;100.00
21960;BME280;11144;43.030;25.108;2023-04-26T00:55:17;98268.78;;;11.84;100.00
21960;BME280;11144;43.030;25.108;2023-04-26T00:56:51;98272.38;;;11.83;100.00
21960;BME280;11144;43.030;25.108;2023-04-26T00:58:24;98273.44;;;11.81;100.00
21960;BME280;11144;43.030;25.108;2023-04-26T00:59:59;98275.38;;;11.77;100.00
21960;BME280;11144;43.030;25.108;2023-04-26T01:01:33;98266.78;;;11.74;100.00
21960;BME280;11144;43.030;25.108;2023-04-26T01:03:06;98268.56;;;11.73;100.00
21960;BME280;11144;43.030;25.108;2023-04-26T01:04:40;98255.66;;;11.67;100.00
21960;BME280;11144;43.030;25.108;2023-04-26T01:06:14;98255.47;;;11.70;100.00
21960;BME280;11144;43.030;25.108;2023-04-26T01:07:48;98257.22;;;11.71;100.00
21960;BME280;11144;43.030;25.108;2023-04-26T01:09:22;98260.59;;;11.73;100.00
21960;BME280;11144;43.030;25.108;2023-04-26T01:10:55;98260.25;;;11.79;100.00
21960;BME280;11144;43.030;25.108;2023-04-26T01:12:29;98271.53;;;11.83;100.00
21960;BME280;11144;43.030;25.108;2023-04-26T01:14:02;98262.53;;;11.85;100.00
21960;BME280;11144;43.030;25.108;2023-04-26T01:15:36;98262.38;;;11.88;100.00
21960;BME280;11144;43.030;25.108;2023-04-26T01:17:10;98263.31;;;11.87;100.00
21960;BME280;11144;43.030;25.108;2023-04-26T01:18:49;98263.31;;;11.87;100.00
21960;BME280;11144;43.030;25.108;2023-04-26T01:20:23;98259.06;;;11.85;100.00
21960;BME280;11144;43.030;25.108;2023-04-26T01:21:58;98259.88;;;11.85;100.00
21960;BME280;11144;43.030;25.108;2023-04-26T01:23:33;98256.50;;;11.83;100.00
21960;BME280;11144;43.030;25.108;2023-04-26T01:25:07;98254.78;;;11.82;100.00
21960;BME280;11144;43.030;25.108;2023-04-26T01:26:43;98255.31;;;11.73;100.00
21960;BME280;11144;43.030;25.108;2023-04-26T01:28:19;98258.22;;;11.69;100.00
21960;BME280;11144;43.030;25.108;2023-04-26T01:29:53;98248.50;;;11.69;100.00
21960;BME280;11144;43.030;25.108;2023-04-26T01:31:34;98252.84;;;11.70;100.00
21960;BME280;11144;43.030;25.108;2023-04-26T01:33:20;98246.78;;;11.68;100.00
21960;BME280;11144;43.030;25.108;2023-04-26T01:35:00;98237.91;;;11.69;100.00
21960;BME280;11144;43.030;25.108;2023-04-26T01:36:33;98245.06;;;11.67;100.00
21960;BME280;11144;43.030;25.108;2023-04-26T01:38:06;98241.50;;;11.68;100.00
21960;BME280;11144;43.030;25.108;2023-04-26T01:39:41;98237.25;;;11.66;100.00
21960;BME280;11144;43.030;25.108;2023-04-26T01:41:15;98238.25;;;11.63;100.00
21960;BME280;11144;43.030;25.108;2023-04-26T01:42:48;98236.38;;;11.65;100.00
21960;BME280;11144;43.030;25.108;2023-04-26T01:44:22;98237.13;;;11.67;100.00
21960;BME280;11144;43.030;25.108;2023-04-26T01:45:54;98238.94;;;11.67;100.00
21960;BME280;11144;43.030;25.108;2023-04-26T01:47:33;98233.63;;;11.67;100.00
21960;BME280;11144;43.030;25.108;2023-04-26T01:49:06;98238.06;;;11.66;100.00
21960;BME280;11144;43.030;25.108;2023-04-26T01:50:40;98234.69;;;11.64;100.00
21960;BME280;11144;43.030;25.108;2023-04-26T01:52:12;98231.25;;;11.62;100.00
21960;BME280;11144;43.030;25.108;2023-04-26T01:53:45;98220.31;;;11.53;100.00
21960;BME280;11144;43.030;25.108;2023-04-26T01:55:19;98226.38;;;11.55;100.00
21960;BME280;11144;43.030;25.108;2023-04-26T01:56:52;98234.41;;;11.53;100.00
21960;BME280;11144;43.030;25.108;2023-04-26T01:58:25;98232.50;;;11.55;100.00
21960;BME280;11144;43.030;25.108;2023-04-26T01:59:57;98238.75;;;11.54;100.00
21960;BME280;11144;43.030;25.108;2023-04-26T02:01:43;98222.16;;;11.51;100.00
21960;BME280;11144;43.030;25.108;2023-04-26T02:03:17;98227.47;;;11.51;100.00
21960;BME280;11144;43.030;25.108;2023-04-26T02:04:50;98224.06;;;11.49;100.00
21960;BME280;11144;43.030;25.108;2023-04-26T02:06:27;98229.63;;;11.44;100.00
21960;BME280;11144;43.030;25.108;2023-04-26T02:08:00;98228.09;;;11.40;100.00
21960;BME280;11144;43.030;25.108;2023-04-26T02:09:33;98223.81;;;11.38;100.00
21960;BME280;11144;43.030;25.108;2023-04-26T02:11:08;98221.19;;;11.38;100.00
21960;BME280;11144;43.030;25.108;2023-04-26T02:12:41;98215.19;;;11.34;100.00
21960;BME280;11144;43.030;25.108;2023-04-26T02:14:14;98209.16;;;11.32;100.00
21960;BME280;11144;43.030;25.108;2023-04-26T02:15:48;98207.63;;;11.28;100.00
21960;BME280;11144;43.030;25.108;2023-04-26T02:17:23;98212.06;;;11.28;100.00
21960;BME280;11144;43.030;25.108;2023-04-26T02:18:57;98213.09;;;11.25;100.00
21960;BME280;11144;43.030;25.108;2023-04-26T02:20:31;98205.56;;;11.18;100.00
21960;BME280;11144;43.030;25.108;2023-04-26T02:22:04;98215.38;;;11.16;100.00
21960;BME280;11144;43.030;25.108;2023-04-26T02:23:37;98216.25;;;11.16;100.00
21960;BME280;11144;43.030;25.108;2023-04-26T02:25:10;98210.97;;;11.16;100.00
21960;BME280;11144;43.030;25.108;2023-04-26T02:26:45;98206.50;;;11.17;100.00
21960;BME280;11144;43.030;25.108;2023-04-26T02:28:18;98207.63;;;11.13;100.00
21960;BME280;11144;43.030;25.108;2023-04-26T02:29:51;98215.63;;;11.11;100.00
21960;BME280;11144;43.030;25.108;2023-04-26T02:31:24;98216.75;;;11.07;100.00
21960;BME280;11144;43.030;25.108;2023-04-26T02:32:59;98216.25;;;11.01;100.00
21960;BME280;11144;43.030;25.108;2023-04-26T02:34:33;98208.72;;;10.93;100.00
21960;BME280;11144;43.030;25.108;2023-04-26T02:36:07;98217.75;;;10.89;100.00
21960;BME280;11144;43.030;25.108;2023-04-26T02:37:39;98214.22;;;10.90;100.00
21960;BME280;11144;43.030;25.108;2023-04-26T02:39:12;98215.19;;;10.88;100.00
21960;BME280;11144;43.030;25.108;2023-04-26T02:40:45;98218.13;;;10.83;100.00
21960;BME280;11144;43.030;25.108;2023-04-26T02:42:21;98219.97;;;10.81;100.00
21960;BME280;11144;43.030;25.108;2023-04-26T02:43:55;98223.41;;;10.83;100.00
21960;BME280;11144;43.030;25.108;2023-04-26T02:45:28;98227.59;;;10.87;100.00
21960;BME280;11144;43.030;25.108;2023-04-26T02:47:02;98217.94;;;10.86;100.00
21960;BME280;11144;43.030;25.108;2023-04-26T02:48:36;98221.44;;;10.87;100.00
21960;BME280;11144;43.030;25.108;2023-04-26T02:50:09;98214.53;;;10.84;100.00
21960;BME280;11144;43.030;25.108;2023-04-26T02:51:43;98216.59;;;10.79;100.00
21960;BME280;11144;43.030;25.108;2023-04-26T02:53:16;98211.63;;;10.73;100.00
21960;BME280;11144;43.030;25.108;2023-04-26T02:54:49;98214.50;;;10.69;100.00
21960;BME280;11144;43.030;25.108;2023-04-26T02:56:22;98210.25;;;10.66;100.00
21960;BME280;11144;43.030;25.108;2023-04-26T02:57:56;98216.41;;;10.67;100.00
21960;BME280;11144;43.030;25.108;2023-04-26T02:59:30;98222.34;;;10.70;100.00
21960;BME280;11144;43.030;25.108;2023-04-26T03:01:02;98220.50;;;10.72;100.00
21960;BME280;11144;43.030;25.108;2023-04-26T03:02:36;98225.78;;;10.72;100.00
21960;BME280;11144;43.030;25.108;2023-04-26T03:04:10;98225.06;;;10.69;100.00
21960;BME280;11144;43.030;25.108;2023-04-26T03:05:43;98224.41;;;10.65;100.00
21960;BME280;11144;43.030;25.108;2023-04-26T03:07:17;98234.81;;;10.68;100.00
21960;BME280;11144;43.030;25.108;2023-04-26T03:08:50;98227.81;;;10.67;100.00
21960;BME280;11144;43.030;25.108;2023-04-26T03:10:24;98227.19;;;10.62;100.00
21960;BME280;11144;43.030;25.108;2023-04-26T03:11:57;98229.84;;;10.62;100.00
21960;BME280;11144;43.030;25.108;2023-04-26T03:13:32;98243.66;;;10.67;100.00
21960;BME280;11144;43.030;25.108;2023-04-26T03:15:06;98243.66;;;10.67;100.00
21960;BME280;11144;43.030;25.108;2023-04-26T03:16:43;98244.84;;;10.62;100.00
21960;BME280;11144;43.030;25.108;2023-04-26T03:18:16;98254.75;;;10.58;100.00
21960;BME280;11144;43.030;25.108;2023-04-26T03:19:49;98242.47;;;10.57;100.00
21960;BME280;11144;43.030;25.108;2023-04-26T03:21:22;98249.59;;;10.55;100.00
21960;BME280;11144;43.030;25.108;2023-04-26T03:22:55;98251.47;;;10.53;100.00
21960;BME280;11144;43.030;25.108;2023-04-26T03:24:29;98247.91;;;10.54;100.00
21960;BME280;11144;43.030;25.108;2023-04-26T03:26:04;98254.91;;;10.55;100.00
21960;BME280;11144;43.030;25.108;2023-04-26T03:27:37;98252.19;;;10.57;100.00
21960;BME280;11144;43.030;25.108;2023-04-26T03:29:11;98255.69;;;10.57;100.00
21960;BME280;11144;43.030;25.108;2023-04-26T03:30:45;98253.03;;;10.57;100.00
21960;BME280;11144;43.030;25.108;2023-04-26T03:32:21;98247.19;;;10.51;100.00
21960;BME280;11144;43.030;25.108;2023-04-26T03:33:54;98254.91;;;10.55;100.00
21960;BME280;11144;43.030;25.108;2023-04-26T03:35:27;98266.41;;;10.54;100.00
21960;BME280;11144;43.030;25.108;2023-04-26T03:37:00;98270.75;;;10.55;100.00
21960;BME280;11144;43.030;25.108;2023-04-26T03:38:34;98265.47;;;10.55;100.00
21960;BME280;11144;43.030;25.108;2023-04-26T03:40:08;98273.47;;;10.54;100.00
21960;BME280;11144;43.030;25.108;2023-04-26T03:41:40;98268.34;;;10.51;100.00
21960;BME280;11144;43.030;25.108;2023-04-26T03:43:16;98274.50;;;10.51;100.00
21960;BME280;11144;43.030;25.108;2023-04-26T03:44:51;98273.63;;;10.51;100.00
21960;BME280;11144;43.030;25.108;2023-04-26T03:46:26;98279.78;;;10.51;100.00
21960;BME280;11144;43.030;25.108;2023-04-26T03:47:59;98285.06;;;10.51;100.00
21960;BME280;11144;43.030;25.108;2023-04-26T03:49:33;98277.13;;;10.51;100.00
21960;BME280;11144;43.030;25.108;2023-04-26T03:51:07;98281.47;;;10.52;100.00
21960;BME280;11144;43.030;25.108;2023-04-26T03:52:40;98281.47;;;10.52;100.00
21960;BME280;11144;43.030;25.108;2023-04-26T03:54:14;98272.78;;;10.50;100.00
21960;BME280;11144;43.030;25.108;2023-04-26T03:55:47;98267.66;;;10.47;100.00
21960;BME280;11144;43.030;25.108;2023-04-26T03:57:21;98265.34;;;10.41;100.00
21960;BME280;11144;43.030;25.108;2023-04-26T03:58:54;98264.81;;;10.34;100.00
21960;BME280;11144;43.030;25.108;2023-04-26T04:00:29;98265.75;;;10.33;100.00
21960;BME280;11144;43.030;25.108;2023-04-26T04:02:03;98270.09;;;10.34;100.00
21960;BME280;11144;43.030;25.108;2023-04-26T04:03:37;98274.34;;;10.37;100.00
21960;BME280;11144;43.030;25.108;2023-04-26T04:05:12;98284.84;;;10.38;100.00
21960;BME280;11144;43.030;25.108;2023-04-26T04:06:46;98281.25;;;10.39;100.00
21960;BME280;11144;43.030;25.108;2023-04-26T04:08:19;98285.53;;;10.42;100.00
21960;BME280;11144;43.030;25.108;2023-04-26T04:09:53;98285.22;;;10.48;100.00
21960;BME280;11144;43.030;25.108;2023-04-26T04:11:26;98288.81;;;10.47;100.00
21960;BME280;11144;43.030;25.108;2023-04-26T04:13:00;98292.19;;;10.49;100.00
21960;BME280;11144;43.030;25.108;2023-04-26T04:14:34;98301.06;;;10.48;100.00
21960;BME280;11144;43.030;25.108;2023-04-26T04:16:09;98296.28;;;10.39;100.00
21960;BME280;11144;43.030;25.108;2023-04-26T04:17:42;98296.28;;;10.39;100.00
21960;BME280;11144;43.030;25.108;2023-04-26T04:19:16;98310.03;;;10.46;100.00
21960;BME280;11144;43.030;25.108;2023-04-26T04:20:50;98306.44;;;10.47;100.00
21960;BME280;11144;43.030;25.108;2023-04-26T04:22:24;98307.16;;;10.50;100.00
21960;BME280;11144;43.030;25.108;2023-04-26T04:23:57;98305.19;;;10.54;100.00
21960;BME280;11144;43.030;25.108;2023-04-26T04:25:29;98307.59;;;10.58;100.00
21960;BME280;11144;43.030;25.108;2023-04-26T04:27:07;98317.84;;;10.64;100.00
21960;BME280;11144;43.030;25.108;2023-04-26T04:28:42;98315.81;;;10.69;100.00
21960;BME280;11144;43.030;25.108;2023-04-26T04:30:16;98308.34;;;10.77;100.00
21960;BME280;11144;43.030;25.108;2023-04-26T04:31:51;98301.00;;;10.82;100.00
21960;BME280;11144;43.030;25.108;2023-04-26T04:33:24;98307.22;;;10.81;100.00
21960;BME280;11144;43.030;25.108;2023-04-26T04:35:01;98303.84;;;10.79;100.00
21960;BME280;11144;43.030;25.108;2023-04-26T04:36:34;98308.19;;;10.80;100.00
21960;BME280;11144;43.030;25.108;2023-04-26T04:38:09;98302.72;;;10.83;100.00
21960;BME280;11144;43.030;25.108;2023-04-26T04:39:43;98297.25;;;10.86;100.00
21960;BME280;11144;43.030;25.108;2023-04-26T04:41:17;98293.69;;;10.87;100.00
21960;BME280;11144;43.030;25.108;2023-04-26T04:42:51;98287.69;;;10.84;100.00
21960;BME280;11144;43.030;25.108;2023-04-26T04:44:25;98292.16;;;10.83;100.00
21960;BME280;11144;43.030;25.108;2023-04-26T04:45:59;98285.13;;;10.82;100.00
21960;BME280;11144;43.030;25.108;2023-04-26T04:47:34;98285.69;;;10.89;100.00
21960;BME280;11144;43.030;25.108;2023-04-26T04:49:10;98280.22;;;10.92;100.00
21960;BME280;11144;43.030;25.108;2023-04-26T04:50:43;98272.63;;;11.01;100.00
21960;BME280;11144;43.030;25.108;2023-04-26T04:52:16;98276.66;;;11.08;100.00
21960;BME280;11144;43.030;25.108;2023-04-26T04:53:52;98273.28;;;11.22;100.00
21960;BME280;11144;43.030;25.108;2023-04-26T04:55:25;98286.41;;;11.54;100.00
21960;BME280;11144;43.030;25.108;2023-04-26T04:56:58;98299.03;;;11.96;100.00
21960;BME280;11144;43.030;25.108;2023-04-26T04:58:32;98289.31;;;12.40;100.00
21960;BME280;11144;43.030;25.108;2023-04-26T05:00:07;98291.72;;;12.86;100.00
21960;BME280;11144;43.030;25.108;2023-04-26T05:01:48;98294.94;;;13.33;100.00
21960;BME280;11144;43.030;25.108;2023-04-26T05:03:23;98290.06;;;13.81;100.00
21960;BME280;11144;43.030;25.108;2023-04-26T05:04:57;98290.00;;;14.21;100.00
21960;BME280;11144;43.030;25.108;2023-04-26T05:06:32;98301.16;;;14.53;100.00
21960;BME280;11144;43.030;25.108;2023-04-26T05:08:05;98286.91;;;14.79;100.00
21960;BME280;11144;43.030;25.108;2023-04-26T05:09:40;98289.22;;;15.08;100.00
21960;BME280;11144;43.030;25.108;2023-04-26T05:11:14;98292.38;;;15.51;100.00
21960;BME280;11144;43.030;25.108;2023-04-26T05:12:47;98293.56;;;15.83;100.00
21960;BME280;11144;43.030;25.108;2023-04-26T05:14:21;98299.50;;;16.10;100.00
21960;BME280;11144;43.030;25.108;2023-04-26T05:15:54;98283.66;;;16.43;100.00
21960;BME280;11144;43.030;25.108;2023-04-26T05:17:27;98285.66;;;16.63;100.00
21960;BME280;11144;43.030;25.108;2023-04-26T05:19:12;98268.34;;;16.68;100.00
21960;BME280;11144;43.030;25.108;2023-04-26T05:20:46;98262.28;;;16.88;100.00
21960;BME280;11144;43.030;25.108;2023-04-26T05:22:19;98263.28;;;17.10;100.00
21960;BME280;11144;43.030;25.108;2023-04-26T05:23:54;98252.47;;;17.22;100.00
21960;BME280;11144;43.030;25.108;2023-04-26T05:25:27;98254.38;;;17.31;100.00
21960;BME280;11144;43.030;25.108;2023-04-26T05:27:15;98251.13;;;17.50;100.00
21960;BME280;11144;43.030;25.108;2023-04-26T05:29:12;98243.66;;;17.64;100.00
21960;BME280;11144;43.030;25.108;2023-04-26T05:30:57;98251.66;;;17.75;100.00
21960;BME280;11144;43.030;25.108;2023-04-26T05:32:49;98246.94;;;17.79;100.00
21960;BME280;11144;43.030;25.108;2023-04-26T05:34:50;98244.88;;;17.71;100.00
21960;BME280;11144;43.030;25.108;2023-04-26T05:36:24;98241.13;;;17.63;100.00
21960;BME280;11144;43.030;25.108;2023-04-26T05:38:00;98237.84;;;17.70;100.00
21960;BME280;11144;43.030;25.108;2023-04-26T05:39:33;98239.94;;;17.87;100.00
21960;BME280;11144;43.030;25.108;2023-04-26T05:41:07;98238.00;;;17.89;100.00
21960;BME280;11144;43.030;25.108;2023-04-26T05:42:40;98236.06;;;17.91;100.00
21960;BME280;11144;43.030;25.108;2023-04-26T05:44:14;98234.41;;;17.68;100.00
21960;BME280;11144;43.030;25.108;2023-04-26T05:45:51;98240.13;;;17.75;100.00
21960;BME280;11144;43.030;25.108;2023-04-26T05:47:25;98239.78;;;18.00;100.00
21960;BME280;11144;43.030;25.108;2023-04-26T05:48:59;98235.53;;;17.97;100.00
21960;BME280;11144;43.030;25.108;2023-04-26T05:50:33;98237.34;;;18.08;100.00
21960;BME280;11144;43.030;25.108;2023-04-26T05:52:10;98236.22;;;18.42;100.00
21960;BME280;11144;43.030;25.108;2023-04-26T05:53:44;98243.19;;;18.74;100.00
21960;BME280;11144;43.030;25.108;2023-04-26T05:55:19;98237.38;;;18.90;100.00
21960;BME280;11144;43.030;25.108;2023-04-26T05:56:53;98248.66;;;18.93;100.00
21960;BME280;11144;43.030;25.108;2023-04-26T05:58:30;98238.88;;;18.83;100.00
21960;BME280;11144;43.030;25.108;2023-04-26T06:00:06;98245.91;;;19.04;100.00
21960;BME280;11144;43.030;25.108;2023-04-26T06:01:48;98242.59;;;19.21;100.00
21960;BME280;11144;43.030;25.108;2023-04-26T06:03:21;98239.44;;;19.37;100.00
21960;BME280;11144;43.030;25.108;2023-04-26T06:04:55;98245.47;;;19.29;100.00
21960;BME280;11144;43.030;25.108;2023-04-26T06:06:31;98241.41;;;19.05;100.00
21960;BME280;11144;43.030;25.108;2023-04-26T06:08:05;98235.91;;;19.06;100.00
21960;BME280;11144;43.030;25.108;2023-04-26T06:09:38;98244.84;;;19.46;100.00
21960;BME280;11144;43.030;25.108;2023-04-26T06:11:12;98250.41;;;19.73;100.00
21960;BME280;11144;43.030;25.108;2023-04-26T06:12:47;98232.66;;;20.01;100.00
21960;BME280;11144;43.030;25.108;2023-04-26T06:14:21;98225.88;;;20.07;100.00
21960;BME280;11144;43.030;25.108;2023-04-26T06:16:00;98232.25;;;20.06;100.00
21960;BME280;11144;43.030;25.108;2023-04-26T06:17:33;98221.41;;;20.17;100.00
21960;BME280;11144;43.030;25.108;2023-04-26T06:19:07;98224.47;;;20.41;100.00
21960;BME280;11144;43.030;25.108;2023-04-26T06:20:40;98222.19;;;20.65;100.00
21960;BME280;11144;43.030;25.108;2023-04-26T06:22:15;98217.72;;;20.18;100.00
21960;BME280;11144;43.030;25.108;2023-04-26T06:23:48;98216.31;;;20.14;100.00
21960;BME280;11144;43.030;25.108;2023-04-26T06:25:23;98224.88;;;20.08;100.00
21960;BME280;11144;43.030;25.108;2023-04-26T06:26:56;98222.38;;;20.16;100.00
21960;BME280;11144;43.030;25.108;2023-04-26T06:28:29;98227.59;;;20.27;100.00
21960;BME280;11144;43.030;25.108;2023-04-26T06:30:04;98218.94;;;20.52;100.00
21960;BME280;11144;43.030;25.108;2023-04-26T06:31:39;98208.59;;;20.76;100.00
21960;BME280;11144;43.030;25.108;2023-04-26T06:33:13;98213.03;;;21.04;100.00
21960;BME280;11144;43.030;25.108;2023-04-26T06:34:46;98212.94;;;21.23;100.00
21960;BME280;11144;43.030;25.108;2023-04-26T06:36:19;98208.34;;;21.42;100.00
21960;BME280;11144;43.030;25.108;2023-04-26T06:37:54;98201.78;;;21.45;100.00
21960;BME280;11144;43.030;25.108;2023-04-26T06:39:27;98203.72;;;21.35;100.00
21960;BME280;11144;43.030;25.108;2023-04-26T06:41:00;98205.00;;;21.31;100.00
21960;BME280;11144;43.030;25.108;2023-04-26T06:42:34;98199.81;;;21.47;100.00
21960;BME280;11144;43.030;25.108;2023-04-26T06:44:30;98199.63;;;21.31;100.00
21960;BME280;11144;43.030;25.108;2023-04-26T06:46:08;98200.38;;;20.68;100.00
21960;BME280;11144;43.030;25.108;2023-04-26T06:47:43;98206.31;;;20.81;100.00
21960;BME280;11144;43.030;25.108;2023-04-26T06:49:16;98196.81;;;20.96;100.00
21960;BME280;11144;43.030;25.108;2023-04-26T06:50:49;98206.06;;;21.11;100.00
21960;BME280;11144;43.030;25.108;2023-04-26T06:52:23;98200.88;;;21.00;100.00
21960;BME280;11144;43.030;25.108;2023-04-26T06:53:58;98198.13;;;20.73;100.00
21960;BME280;11144;43.030;25.108;2023-04-26T06:55:31;98196.50;;;20.89;100.00
21960;BME280;11144;43.030;25.108;2023-04-26T06:57:05;98205.69;;;21.06;100.00
21960;BME280;11144;43.030;25.108;2023-04-26T06:58:38;98203.91;;;21.24;100.00
21960;BME280;11144;43.030;25.108;2023-04-26T07:00:13;98199.97;;;21.18;100.00
21960;BME280;11144;43.030;25.108;2023-04-26T07:01:46;98197.13;;;21.47;100.00
21960;BME280;11144;43.030;25.108;2023-04-26T07:03:20;98196.41;;;21.45;100.00
21960;BME280;11144;43.030;25.108;2023-04-26T07:04:53;98194.25;;;21.31;100.00
21960;BME280;11144;43.030;25.108;2023-04-26T07:06:27;98201.72;;;21.64;100.00
21960;BME280;11144;43.030;25.108;2023-04-26T07:08:00;98202.50;;;21.47;100.00
21960;BME280;11144;43.030;25.108;2023-04-26T07:09:35;98201.75;;;20.91;100.00
21960;BME280;11144;43.030;25.108;2023-04-26T07:11:09;98198.94;;;20.83;100.00
21960;BME280;11144;43.030;25.108;2023-04-26T07:12:42;98194.16;;;20.77;100.00
21960;BME280;11144;43.030;25.108;2023-04-26T07:14:16;98204.00;;;21.05;100.00
21960;BME280;11144;43.030;25.108;2023-04-26T07:15:49;98192.88;;;21.17;100.00
21960;BME280;11144;43.030;25.108;2023-04-26T07:17:23;98198.53;;;21.24;100.00
21960;BME280;11144;43.030;25.108;2023-04-26T07:18:56;98186.56;;;21.09;100.00
21960;BME280;11144;43.030;25.108;2023-04-26T07:20:29;98199.44;;;20.59;100.00
21960;BME280;11144;43.030;25.108;2023-04-26T07:22:03;98193.66;;;20.45;100.00
21960;BME280;11144;43.030;25.108;2023-04-26T07:23:36;98185.78;;;20.15;100.00
21960;BME280;11144;43.030;25.108;2023-04-26T07:25:11;98185.59;;;20.45;100.00
21960;BME280;11144;43.030;25.108;2023-04-26T07:26:44;98187.09;;;20.76;100.00
21960;BME280;11144;43.030;25.108;2023-04-26T07:28:18;98178.78;;;21.06;100.00
21960;BME280;11144;43.030;25.108;2023-04-26T07:29:53;98184.75;;;21.00;100.00
21960;BME280;11144;43.030;25.108;2023-04-26T07:31:27;98184.09;;;21.25;100.00
21960;BME280;11144;43.030;25.108;2023-04-26T07:33:00;98195.19;;;21.12;100.00
21960;BME280;11144;43.030;25.108;2023-04-26T07:34:34;98185.31;;;21.03;100.00
21960;BME280;11144;43.030;25.108;2023-04-26T07:36:08;98191.81;;;21.10;100.00
21960;BME280;11144;43.030;25.108;2023-04-26T07:37:42;98190.31;;;20.79;100.00
21960;BME280;11144;43.030;25.108;2023-04-26T07:39:15;98185.53;;;20.64;100.00
21960;BME280;11144;43.030;25.108;2023-04-26T07:40:50;98191.09;;;20.53;100.00
21960;BME280;11144;43.030;25.108;2023-04-26T07:42:24;98176.28;;;20.30;100.00
21960;BME280;11144;43.030;25.108;2023-04-26T07:43:57;98188.47;;;20.15;100.00
21960;BME280;11144;43.030;25.108;2023-04-26T07:45:31;98187.88;;;20.40;100.00
21960;BME280;11144;43.030;25.108;2023-04-26T07:47:10;98179.50;;;20.62;100.00
21960;BME280;11144;43.030;25.108;2023-04-26T07:48:43;98193.03;;;20.70;100.00
21960;BME280;11144;43.030;25.108;2023-04-26T07:50:16;98190.75;;;20.75;100.00
21960;BME280;11144;43.030;25.108;2023-04-26T07:51:50;98194.72;;;20.71;100.00
21960;BME280;11144;43.030;25.108;2023-04-26T07:53:24;98195.94;;;20.86;100.00
21960;BME280;11144;43.030;25.108;2023-04-26T07:54:57;98191.19;;;21.16;100.00
21960;BME280;11144;43.030;25.108;2023-04-26T07:56:31;98190.03;;;21.19;100.00
21960;BME280;11144;43.030;25.108;2023-04-26T07:58:05;98188.72;;;20.96;100.00
21960;BME280;11144;43.030;25.108;2023-04-26T07:59:39;98196.38;;;20.91;100.00
21960;BME280;11144;43.030;25.108;2023-04-26T08:01:12;98195.34;;;20.08;100.00
21960;BME280;11144;43.030;25.108;2023-04-26T08:02:47;98205.88;;;19.42;100.00
21960;BME280;11144;43.030;25.108;2023-04-26T08:04:30;98201.22;;;19.54;100.00
21960;BME280;11144;43.030;25.108;2023-04-26T08:06:05;98195.91;;;19.82;100.00
21960;BME280;11144;43.030;25.108;2023-04-26T08:07:40;98193.81;;;19.95;100.00